Terminal Aerodrome Forecast
Issued by NWS Sioux Falls, SD

Home | Current Version | Previous Version | Graphics & Text | Print | Product List | Glossary On
Versions: 1 2 3 4 5 6 7 8 9 10 11 12 13 14 15 16 17 18
452
FTUS43 KFSD 161740 AAB
TAFFSD
TAF AMD
KFSD 161740Z 1618/1718 15015G23KT P6SM FEW120 OVC150
     FM162100 16021G30KT P6SM BKN250
     FM170700 17016G24KT P6SM SCT200
     FM171000 17010KT P6SM BKN070
     FM171300 18009KT 6SM BR OVC012
     FM171600 22006KT P6SM OVC018=

USA.gov is the U.S. government's official web portal to all federal, state and local government web resources and services.